Time;durP1;ratioP1;P1;durP2;ratioP2;P2;SDS_P1;SDS_P2;PMS_P1;PMS_P2;Temp;Humidity;BMP_temperature;BMP_pressure;BME280_temperature;BME280_humidity;BME280_pressure;Samples;Min_cycle;Max_cycle;Signal;HPM_P1;HPM_P2
2022/09/10 00:01:47;;;;;;;36.63;18.35;;;13.70;99.90;;;;;;5053734;28;20078;-86
2022/09/10 00:04:14;;;;;;;30.08;15.98;;;13.70;99.90;;;;;;5036577;28;20052;-86
2022/09/10 00:06:41;;;;;;;26.85;16.15;;;13.70;99.90;;;;;;5054327;28;20053;-85
2022/09/10 00:09:08;;;;;;;35.78;18.83;;;13.70;99.90;;;;;;5034856;28;20079;-86
2022/09/10 00:11:37;;;;;;;31.00;18.10;;;13.70;99.90;;;;;;5045523;28;20102;-86
2022/09/10 00:14:05;;;;;;;35.33;18.98;;;13.70;99.90;;;;;;5053959;28;20502;-85
2022/09/10 00:16:31;;;;;;;55.53;20.17;;;13.70;99.90;;;;;;5036485;28;20045;-85
2022/09/10 00:18:57;;;;;;;34.92;17.70;;;13.70;99.90;;;;;;5053768;28;20041;-86
2022/09/10 00:21:23;;;;;;;36.03;19.52;;;13.60;99.90;;;;;;5019248;28;20154;-85
2022/09/10 00:23:49;;;;;;;34.40;18.85;;;13.70;99.90;;;;;;5053264;28;20551;-85
2022/09/10 00:26:20;;;;;;;44.33;20.92;;;13.60;99.90;;;;;;5036655;28;20049;-85
2022/09/10 00:28:48;;;;;;;38.97;20.85;;;13.60;99.90;;;;;;5053518;28;20049;-85
2022/09/10 00:31:14;;;;;;;38.92;19.73;;;13.60;99.90;;;;;;5052191;28;20124;-85
2022/09/10 00:33:40;;;;;;;34.58;20.30;;;13.70;99.90;;;;;;5035837;28;20045;-85
2022/09/10 00:36:18;;;;;;;36.25;20.33;;;13.80;99.90;;;;;;5019099;28;20052;-86
2022/09/10 00:38:45;;;;;;;35.33;18.08;;;13.70;99.90;;;;;;5051268;28;20044;-86
2022/09/10 00:41:12;;;;;;;35.65;20.58;;;13.80;99.90;;;;;;5053711;28;20064;-85
2022/09/10 00:44:05;;;;;;;33.50;18.58;;;13.80;99.90;;;;;;5035551;28;20505;-85
2022/09/10 00:46:43;;;;;;;33.97;20.17;;;13.90;99.90;;;;;;5030937;28;20049;-85
2022/09/10 00:49:11;;;;;;;38.22;21.40;;;13.90;99.90;;;;;;5053106;28;20044;-85
2022/09/10 00:51:37;;;;;;;34.28;20.98;;;13.90;99.90;;;;;;5053121;28;20040;-85
2022/09/10 00:54:05;;;;;;;35.50;20.08;;;13.90;99.90;;;;;;5052470;28;20817;-86
2022/09/10 00:56:32;;;;;;;29.38;19.58;;;13.90;99.90;;;;;;5034991;28;20033;-86
2022/09/10 00:58:59;;;;;;;38.08;22.25;;;14.00;99.90;;;;;;5053523;28;20045;-85
2022/09/10 01:01:25;;;;;;;33.47;21.23;;;14.00;99.90;;;;;;5052812;28;20053;-85
2022/09/10 01:03:52;;;;;;;37.97;20.13;;;14.00;99.90;;;;;;5035461;28;20044;-86
2022/09/10 01:06:18;;;;;;;39.15;21.75;;;14.00;99.90;;;;;;5052564;28;20111;-85
2022/09/10 01:08:44;;;;;;;43.13;22.90;;;14.00;99.90;;;;;;5007836;28;20103;-87
2022/09/10 01:11:28;;;;;;;37.83;22.42;;;14.00;99.90;;;;;;5052878;28;20044;-85
2022/09/10 01:14:23;;;;;;;42.78;21.77;;;14.00;99.90;;;;;;5051791;28;20052;-85
2022/09/10 01:16:55;;;;;;;35.83;22.02;;;14.10;99.90;;;;;;5034978;28;20048;-86
2022/09/10 01:19:52;;;;;;;35.63;21.25;;;14.10;99.90;;;;;;5035162;28;20041;-85
2022/09/10 01:22:28;;;;;;;43.30;23.55;;;14.20;99.90;;;;;;5051405;28;20033;-85
2022/09/10 01:25:12;;;;;;;28.98;19.38;;;14.20;99.90;;;;;;5015925;28;20051;-85
2022/09/10 01:27:53;;;;;;;31.48;19.95;;;14.20;99.90;;;;;;5041543;28;20048;-85
2022/09/10 01:30:59;;;;;;;36.88;21.75;;;14.20;99.90;;;;;;5051925;28;20483;-85
2022/09/10 01:33:33;;;;;;;37.38;21.45;;;14.20;99.90;;;;;;4985015;28;20081;-85
2022/09/10 01:36:15;;;;;;;30.33;19.58;;;14.30;99.90;;;;;;5027344;28;20060;-85
2022/09/10 01:38:41;;;;;;;32.55;21.27;;;14.30;99.90;;;;;;5052898;28;20470;-86
2022/09/10 01:41:07;;;;;;;34.90;20.52;;;14.30;99.90;;;;;;5035155;28;20079;-86
2022/09/10 01:43:33;;;;;;;36.10;21.92;;;14.30;99.90;;;;;;5052776;28;20440;-85
2022/09/10 01:46:36;;;;;;;30.15;19.25;;;14.40;99.90;;;;;;5051886;28;20037;-85
2022/09/10 01:49:22;;;;;;;31.70;19.63;;;14.30;99.90;;;;;;5052020;28;20441;-85
2022/09/10 01:52:24;;;;;;;35.13;21.25;;;14.30;99.90;;;;;;5025171;28;20049;-86
2022/09/10 01:55:26;;;;;;;32.95;21.35;;;14.40;99.90;;;;;;5051148;28;20045;-87
2022/09/10 01:58:11;;;;;;;33.92;19.92;;;14.30;99.90;;;;;;5033597;28;20098;-87
2022/09/10 02:00:42;;;;;;;29.88;20.10;;;14.30;99.90;;;;;;5017341;28;20045;-86
2022/09/10 02:03:15;;;;;;;35.53;21.58;;;14.30;99.90;;;;;;5025735;28;20494;-85
2022/09/10 02:05:43;;;;;;;30.67;20.50;;;14.30;99.90;;;;;;5051310;28;20052;-86
2022/09/10 02:08:14;;;;;;;36.00;21.25;;;14.30;99.90;;;;;;5051696;28;20049;-85
2022/09/10 02:10:54;;;;;;;35.00;21.38;;;14.30;99.90;;;;;;5051886;28;20135;-85
2022/09/10 02:13:24;;;;;;;31.80;20.58;;;14.30;99.90;;;;;;5034829;28;20377;-85
2022/09/10 02:15:51;;;;;;;26.10;16.48;;;14.30;99.90;;;;;;5051824;28;20067;-86
2022/09/10 02:18:19;;;;;;;40.80;21.95;;;14.30;99.90;;;;;;5051660;28;20120;-85
2022/09/10 02:20:49;;;;;;;33.53;21.38;;;14.30;99.90;;;;;;5032853;28;20124;-85
2022/09/10 02:23:18;;;;;;;36.20;20.60;;;14.30;99.90;;;;;;5025184;28;20045;-85
2022/09/10 02:25:44;;;;;;;35.97;20.85;;;14.20;99.90;;;;;;5007577;28;20057;-85
2022/09/10 02:28:11;;;;;;;35.35;20.60;;;14.30;99.90;;;;;;5051473;28;20052;-84
2022/09/10 02:30:37;;;;;;;40.10;21.73;;;14.20;99.90;;;;;;5034253;28;20045;-85
2022/09/10 02:33:02;;;;;;;35.63;20.55;;;14.30;99.90;;;;;;5025493;28;20041;-85
2022/09/10 02:35:29;;;;;;;36.65;21.52;;;14.20;99.90;;;;;;5033386;28;20038;-86
2022/09/10 02:37:57;;;;;;;29.92;20.20;;;14.20;99.90;;;;;;5033696;28;20129;-86
2022/09/10 02:40:23;;;;;;;32.65;20.77;;;14.20;99.90;;;;;;5033921;28;20049;-86
2022/09/10 02:42:49;;;;;;;37.22;20.77;;;14.20;99.90;;;;;;5050901;28;20437;-85
2022/09/10 02:45:14;;;;;;;27.73;17.63;;;14.20;99.90;;;;;;5016133;28;20106;-85
2022/09/10 02:47:40;;;;;;;40.65;22.40;;;14.20;99.90;;;;;;5051430;28;20087;-85
2022/09/10 02:50:07;;;;;;;36.13;21.23;;;14.20;99.90;;;;;;5033422;28;20041;-85
2022/09/10 02:52:33;;;;;;;36.97;20.80;;;14.20;99.90;;;;;;5033209;28;20071;-86
2022/09/10 02:55:00;;;;;;;30.20;17.95;;;14.30;99.90;;;;;;5050935;28;20049;-85
2022/09/10 02:57:26;;;;;;;27.88;17.35;;;14.20;99.90;;;;;;5023624;28;20077;-85
2022/09/10 02:59:55;;;;;;;35.70;20.88;;;14.30;99.90;;;;;;5051320;28;20037;-85
2022/09/10 03:02:21;;;;;;;28.17;18.58;;;14.30;99.90;;;;;;5033570;28;20044;-85
2022/09/10 03:04:47;;;;;;;40.15;20.52;;;14.30;99.90;;;;;;5051081;28;20049;-85
2022/09/10 03:07:16;;;;;;;37.00;21.02;;;14.30;99.90;;;;;;5033685;28;20516;-85
2022/09/10 03:09:41;;;;;;;25.58;18.15;;;14.40;99.90;;;;;;5032251;28;20146;-85
2022/09/10 03:12:07;;;;;;;39.40;21.25;;;14.40;99.90;;;;;;5033081;28;20533;-86
2022/09/10 03:14:33;;;;;;;36.05;21.58;;;14.40;99.90;;;;;;5051041;28;20125;-85
2022/09/10 03:16:59;;;;;;;38.80;21.55;;;14.40;99.90;;;;;;5051367;28;20076;-85
2022/09/10 03:19:25;;;;;;;36.90;20.10;;;14.40;99.90;;;;;;5000673;28;20131;-85
2022/09/10 03:21:51;;;;;;;36.65;19.90;;;14.40;99.90;;;;;;5007946;28;20519;-85
2022/09/10 03:24:18;;;;;;;37.92;21.48;;;14.50;99.90;;;;;;5037782;28;20040;-85
2022/09/10 03:26:44;;;;;;;34.15;21.17;;;14.40;99.90;;;;;;5049166;28;20048;-85
2022/09/10 03:29:09;;;;;;;38.53;22.15;;;14.50;99.90;;;;;;5033448;28;20048;-85
2022/09/10 03:31:35;;;;;;;34.08;21.23;;;14.50;99.90;;;;;;5050977;28;20140;-85
2022/09/10 03:34:01;;;;;;;33.78;21.35;;;14.50;99.90;;;;;;5051527;28;20391;-87
2022/09/10 03:36:29;;;;;;;36.35;22.08;;;14.50;99.90;;;;;;5033122;28;20045;-85
2022/09/10 03:38:54;;;;;;;35.08;21.58;;;14.50;99.90;;;;;;5033823;28;20045;-85
2022/09/10 03:41:20;;;;;;;36.65;21.92;;;14.50;99.90;;;;;;5051297;28;20116;-85
2022/09/10 03:43:46;;;;;;;42.65;22.73;;;14.50;99.90;;;;;;5034944;28;20041;-85
2022/09/10 03:46:11;;;;;;;40.60;22.25;;;14.50;99.90;;;;;;5036364;28;20044;-88
2022/09/10 03:48:38;;;;;;;28.83;18.02;;;14.50;99.90;;;;;;5036740;28;20037;-85
2022/09/10 03:51:06;;;;;;;32.47;20.73;;;14.50;99.90;;;;;;5018154;28;20079;-86
2022/09/10 03:53:32;;;;;;;39.13;22.48;;;14.50;99.90;;;;;;5030331;28;20544;-85
2022/09/10 03:55:58;;;;;;;39.78;22.40;;;14.50;99.90;;;;;;5030153;28;20052;-87
2022/09/10 03:58:23;;;;;;;37.80;22.30;;;14.50;99.90;;;;;;5052163;28;20498;-85
2022/09/10 04:00:49;;;;;;;34.72;20.83;;;14.60;99.90;;;;;;5036734;28;20073;-86
2022/09/10 04:03:15;;;;;;;40.00;22.02;;;14.60;99.90;;;;;;5018225;28;20504;-86
2022/09/10 04:05:44;;;;;;;38.50;21.48;;;14.60;99.90;;;;;;5035357;28;20076;-86
2022/09/10 04:08:11;;;;;;;44.70;21.30;;;14.60;99.90;;;;;;5053768;28;20631;-86
2022/09/10 04:10:41;;;;;;;32.80;20.95;;;14.60;99.90;;;;;;5035438;28;20430;-86
2022/09/10 04:13:08;;;;;;;36.67;20.80;;;14.60;99.90;;;;;;5036364;28;20048;-86
2022/09/10 04:15:34;;;;;;;41.92;19.98;;;14.60;99.90;;;;;;5036048;28;20037;-86
2022/09/10 04:18:00;;;;;;;40.47;21.73;;;14.60;99.90;;;;;;5029308;28;20037;-86
2022/09/10 04:20:26;;;;;;;41.83;22.17;;;14.60;99.90;;;;;;5054022;28;20041;-85
2022/09/10 04:22:52;;;;;;;31.05;18.25;;;14.60;99.90;;;;;;5034565;28;20380;-86
2022/09/10 04:25:18;;;;;;;41.63;22.95;;;14.60;99.90;;;;;;5053318;28;20071;-85
2022/09/10 04:27:45;;;;;;;39.08;22.38;;;14.60;99.90;;;;;;5035505;28;20060;-85
2022/09/10 04:30:12;;;;;;;41.88;22.10;;;14.60;99.90;;;;;;5053753;28;20045;-85
2022/09/10 04:32:38;;;;;;;42.50;22.92;;;14.70;99.90;;;;;;5054443;28;20037;-85
2022/09/10 04:35:05;;;;;;;37.95;20.95;;;14.70;99.90;;;;;;5035947;28;20465;-85
2022/09/10 04:37:31;;;;;;;41.15;22.17;;;14.70;99.90;;;;;;5035639;28;20136;-85
2022/09/10 04:39:58;;;;;;;41.92;21.90;;;14.70;99.90;;;;;;5053917;28;20033;-85
2022/09/10 04:42:24;;;;;;;32.72;17.80;;;14.70;99.90;;;;;;5036191;28;20425;-86
2022/09/10 04:45:18;;;;;;;46.38;22.65;;;14.70;99.90;;;;;;5053570;28;20043;-85
2022/09/10 04:47:45;;;;;;;56.28;24.92;;;14.70;99.90;;;;;;5038403;28;20105;-85
2022/09/10 04:50:14;;;;;;;38.65;22.95;;;14.70;99.90;;;;;;5028787;28;20052;-85
2022/09/10 04:52:42;;;;;;;38.28;23.02;;;14.70;99.90;;;;;;5036141;28;20126;-86
2022/09/10 04:55:08;;;;;;;47.88;23.25;;;14.70;99.90;;;;;;5049525;28;20052;-85
2022/09/10 04:57:37;;;;;;;40.80;23.33;;;14.70;99.90;;;;;;5035516;28;20049;-86
2022/09/10 05:00:07;;;;;;;40.45;23.05;;;14.70;99.90;;;;;;5035126;28;20096;-86
2022/09/10 05:02:33;;;;;;;50.25;25.35;;;14.70;99.90;;;;;;5051552;28;20444;-86
2022/09/10 05:05:01;;;;;;;36.88;21.13;;;14.70;99.90;;;;;;5035144;28;20079;-85
2022/09/10 05:07:27;;;;;;;30.75;17.55;;;14.70;99.90;;;;;;5035257;28;20056;-85
2022/09/10 05:09:53;;;;;;;44.63;24.17;;;14.70;99.90;;;;;;5033667;28;20045;-85
2022/09/10 05:12:18;;;;;;;49.92;24.67;;;14.80;99.90;;;;;;5052416;28;20037;-85
2022/09/10 05:14:44;;;;;;;37.60;21.48;;;14.80;99.90;;;;;;5034642;28;20072;-85
2022/09/10 05:17:10;;;;;;;49.00;24.27;;;14.80;99.90;;;;;;5052622;28;20049;-85
2022/09/10 05:19:36;;;;;;;41.53;23.55;;;14.80;99.90;;;;;;5035033;28;20033;-85
2022/09/10 05:22:02;;;;;;;50.53;24.63;;;14.80;99.90;;;;;;5034620;28;20045;-86
2022/09/10 05:24:27;;;;;;;40.10;20.98;;;14.80;99.90;;;;;;5050942;28;20036;-84
2022/09/10 05:26:53;;;;;;;42.60;23.83;;;14.80;99.90;;;;;;5032036;28;20038;-85
2022/09/10 05:29:20;;;;;;;41.15;22.88;;;14.80;99.90;;;;;;5032521;28;20502;-85
2022/09/10 05:31:46;;;;;;;51.17;26.02;;;14.80;99.90;;;;;;5052466;28;20060;-86
2022/09/10 05:34:15;;;;;;;50.30;26.08;;;14.80;99.90;;;;;;5041334;28;20053;-87
2022/09/10 05:36:40;;;;;;;50.25;25.67;;;14.80;99.90;;;;;;5052295;28;20045;-85
2022/09/10 05:39:06;;;;;;;49.50;26.70;;;14.80;99.90;;;;;;5008873;28;20045;-84
2022/09/10 05:41:32;;;;;;;57.22;26.00;;;14.80;99.90;;;;;;5044519;28;20041;-85
2022/09/10 05:43:58;;;;;;;53.33;25.35;;;14.70;99.90;;;;;;5046043;28;20081;-85
2022/09/10 05:46:24;;;;;;;46.10;26.02;;;14.70;99.90;;;;;;5064126;28;20090;-86
2022/09/10 05:48:52;;;;;;;51.53;25.80;;;14.70;99.90;;;;;;5037367;28;20049;-85
2022/09/10 05:51:19;;;;;;;56.25;27.40;;;14.80;99.90;;;;;;5025534;28;20124;-85
2022/09/10 05:53:44;;;;;;;51.53;25.73;;;14.80;99.90;;;;;;5062483;28;20084;-85
2022/09/10 05:56:10;;;;;;;50.88;25.80;;;14.80;99.90;;;;;;5054887;28;20084;-85
2022/09/10 05:58:36;;;;;;;57.38;27.75;;;14.80;99.90;;;;;;5035514;28;20562;-85
2022/09/10 06:01:02;;;;;;;58.83;26.08;;;14.80;99.90;;;;;;5035245;28;20056;-85
2022/09/10 06:03:27;;;;;;;54.90;27.02;;;14.80;99.90;;;;;;5034144;28;20045;-85
2022/09/10 06:05:54;;;;;;;43.20;22.15;;;14.90;99.90;;;;;;5031445;28;20502;-87
2022/09/10 06:08:21;;;;;;;53.92;25.50;;;14.90;99.90;;;;;;5034327;28;20127;-85
2022/09/10 06:11:06;;;;;;;49.90;27.27;;;15.00;99.90;;;;;;5051326;28;20041;-85
2022/09/10 06:13:33;;;;;;;50.45;25.98;;;15.00;99.90;;;;;;5050255;28;20052;-85
2022/09/10 06:15:59;;;;;;;51.25;25.35;;;15.00;99.90;;;;;;5052360;28;20053;-86
2022/09/10 06:18:25;;;;;;;46.97;25.58;;;15.00;99.90;;;;;;5032718;28;20049;-85
2022/09/10 06:21:01;;;;;;;43.85;26.30;;;15.10;99.90;;;;;;5033606;28;20515;-86
2022/09/10 06:23:26;;;;;;;40.05;23.67;;;15.10;99.90;;;;;;5048659;28;20041;-86
2022/09/10 06:26:03;;;;;;;42.30;24.48;;;15.10;99.90;;;;;;5051285;28;20115;-85
2022/09/10 06:28:30;;;;;;;41.85;23.15;;;15.20;99.90;;;;;;5051224;28;20064;-85
2022/09/10 06:30:56;;;;;;;44.63;24.52;;;15.20;99.90;;;;;;5051180;28;20075;-85
2022/09/10 06:33:22;;;;;;;44.70;26.20;;;15.30;99.90;;;;;;5052221;28;20187;-85
2022/09/10 06:35:58;;;;;;;35.30;21.20;;;15.30;99.90;;;;;;5016486;28;20128;-86
2022/09/10 06:38:28;;;;;;;38.72;23.65;;;15.40;99.90;;;;;;5053918;28;20041;-84
2022/09/10 06:40:56;;;;;;;39.63;24.02;;;15.40;99.90;;;;;;5052992;28;20049;-84
2022/09/10 06:43:24;;;;;;;38.28;24.42;;;15.50;99.90;;;;;;5032115;28;20064;-84
2022/09/10 06:45:53;;;;;;;37.03;20.83;;;15.50;99.90;;;;;;5029600;28;20493;-84
2022/09/10 06:48:20;;;;;;;42.78;24.58;;;15.50;99.90;;;;;;5039356;28;20127;-85
2022/09/10 06:50:58;;;;;;;40.47;23.42;;;15.60;99.90;;;;;;5055313;28;20040;-86
2022/09/10 06:53:27;;;;;;;34.75;22.83;;;15.70;99.90;;;;;;5039139;28;20045;-85
2022/09/10 06:55:54;;;;;;;35.60;22.13;;;15.70;99.90;;;;;;5038387;28;20059;-85
2022/09/10 06:58:22;;;;;;;39.25;23.02;;;15.70;99.90;;;;;;5073340;28;20375;-85
2022/09/10 07:00:49;;;;;;;40.38;22.38;;;15.70;99.90;;;;;;5055172;28;20044;-85
2022/09/10 07:03:20;;;;;;;36.63;23.00;;;15.80;99.90;;;;;;5032853;28;20042;-85
2022/09/10 07:05:46;;;;;;;31.63;19.98;;;15.80;99.90;;;;;;5054836;28;20127;-84
2022/09/10 07:08:14;;;;;;;33.42;22.67;;;15.80;99.90;;;;;;5024324;28;20495;-85
2022/09/10 07:10:41;;;;;;;37.60;23.00;;;15.90;99.90;;;;;;5017197;28;20103;-85
2022/09/10 07:13:07;;;;;;;38.55;21.90;;;15.80;99.90;;;;;;5016695;28;20072;-85
2022/09/10 07:15:33;;;;;;;36.17;22.17;;;15.80;99.90;;;;;;5031100;28;20511;-85
2022/09/10 07:17:59;;;;;;;33.28;21.55;;;15.90;99.90;;;;;;5048001;28;20048;-85
2022/09/10 07:20:28;;;;;;;36.17;22.35;;;15.90;99.90;;;;;;5039787;28;20092;-85
2022/09/10 07:22:58;;;;;;;38.50;21.60;;;15.90;99.90;;;;;;5056900;28;20087;-85
2022/09/10 07:25:25;;;;;;;30.77;20.60;;;15.90;99.90;;;;;;5047966;28;20125;-85
2022/09/10 07:27:52;;;;;;;36.60;20.90;;;15.90;99.90;;;;;;5042293;28;20080;-85
2022/09/10 07:30:21;;;;;;;29.30;19.42;;;15.90;99.90;;;;;;5076370;28;20113;-85
2022/09/10 07:32:48;;;;;;;34.20;21.10;;;16.00;99.90;;;;;;5076431;28;20486;-84
2022/09/10 07:35:15;;;;;;;35.83;22.00;;;16.10;99.90;;;;;;5059803;28;20494;-85
2022/09/10 07:37:43;;;;;;;25.45;18.48;;;16.10;99.90;;;;;;5062661;28;20045;-85
2022/09/10 07:40:09;;;;;;;35.10;21.42;;;16.20;99.90;;;;;;5045805;28;20045;-85
2022/09/10 07:42:36;;;;;;;36.75;21.77;;;16.20;99.90;;;;;;5076681;28;20465;-85
2022/09/10 07:45:02;;;;;;;34.13;20.17;;;16.20;99.90;;;;;;5068421;28;20513;-85
2022/09/10 07:47:27;;;;;;;26.73;19.98;;;16.30;99.90;;;;;;5056506;28;20071;-85
2022/09/10 07:49:53;;;;;;;27.63;19.95;;;16.40;99.90;;;;;;5056160;28;20041;-85
2022/09/10 07:52:19;;;;;;;22.30;16.42;;;16.40;99.90;;;;;;5056408;28;20044;-85
2022/09/10 07:54:44;;;;;;;29.27;18.20;;;16.40;99.90;;;;;;5032383;28;20449;-85
2022/09/10 07:57:10;;;;;;;28.77;18.05;;;16.50;99.90;;;;;;5036147;28;20083;-85
2022/09/10 07:59:36;;;;;;;30.35;18.77;;;16.50;99.90;;;;;;5035970;28;20053;-85
2022/09/10 08:02:01;;;;;;;26.00;18.08;;;16.50;99.90;;;;;;5018667;28;20076;-85
2022/09/10 08:04:31;;;;;;;25.75;17.75;;;16.50;99.90;;;;;;5035833;28;20406;-85
2022/09/10 08:06:57;;;;;;;26.33;15.73;;;16.50;99.90;;;;;;5034759;28;20517;-86
2022/09/10 08:09:24;;;;;;;27.88;16.25;;;16.60;99.90;;;;;;5018578;28;20052;-85
2022/09/10 08:11:50;;;;;;;21.95;15.73;;;16.50;99.90;;;;;;5035881;28;20406;-85
2022/09/10 08:14:15;;;;;;;23.83;16.92;;;16.60;99.90;;;;;;5038167;28;20487;-85
2022/09/10 08:16:41;;;;;;;28.50;16.25;;;16.60;99.90;;;;;;5019543;28;20049;-85
2022/09/10 08:19:09;;;;;;;20.77;15.57;;;16.70;99.90;;;;;;5004968;28;20136;-85
2022/09/10 08:21:35;;;;;;;23.13;15.63;;;16.90;99.90;;;;;;5037250;28;20068;-86
2022/09/10 08:24:01;;;;;;;22.27;14.15;;;17.00;99.90;;;;;;4987999;28;20128;-85
2022/09/10 08:26:27;;;;;;;30.60;14.32;;;17.20;99.90;;;;;;5023098;28;20068;-87
2022/09/10 08:28:55;;;;;;;19.65;12.60;;;17.40;99.90;;;;;;5026674;28;20372;-85
2022/09/10 08:31:21;;;;;;;15.70;13.70;;;17.50;99.90;;;;;;5024012;28;20041;-86
2022/09/10 08:33:52;;;;;;;23.52;13.60;;;17.60;99.90;;;;;;5038382;28;20406;-86
2022/09/10 08:36:20;;;;;;;18.05;10.32;;;17.60;99.90;;;;;;5025958;28;20049;-86
2022/09/10 08:38:47;;;;;;;19.13;12.27;;;17.60;99.90;;;;;;5044132;28;20061;-86
2022/09/10 08:41:43;;;;;;;21.00;13.60;;;17.70;99.90;;;;;;5037005;28;20411;-86
2022/09/10 08:44:08;;;;;;;16.45;13.00;;;17.80;99.90;;;;;;5024617;28;20049;-86
2022/09/10 08:46:54;;;;;;;19.67;12.45;;;17.80;99.90;;;;;;5040023;28;20060;-86
2022/09/10 08:49:44;;;;;;;20.98;12.55;;;17.80;99.90;;;;;;5040257;28;20042;-86
2022/09/10 08:52:10;;;;;;;17.93;13.07;;;17.80;99.90;;;;;;5002914;28;20411;-86
2022/09/10 08:55:10;;;;;;;16.60;12.38;;;17.90;99.90;;;;;;5018130;28;20293;-86
2022/09/10 08:57:45;;;;;;;14.02;11.57;;;17.90;99.90;;;;;;5017959;28;20431;-86
2022/09/10 09:00:16;;;;;;;16.65;11.68;;;17.90;99.90;;;;;;5017616;28;20498;-86
2022/09/10 09:03:02;;;;;;;12.13;10.73;;;18.00;99.90;;;;;;5035374;28;20045;-86
2022/09/10 09:05:38;;;;;;;17.33;11.68;;;18.10;99.90;;;;;;5035254;28;20407;-86
2022/09/10 09:08:05;;;;;;;18.50;12.07;;;18.30;99.90;;;;;;5000563;28;20407;-86
2022/09/10 09:10:35;;;;;;;18.30;12.95;;;18.40;99.90;;;;;;5034961;28;20108;-86
2022/09/10 09:13:26;;;;;;;17.63;12.52;;;18.70;99.90;;;;;;5034721;28;20399;-86
2022/09/10 09:16:03;;;;;;;18.35;10.98;;;19.00;99.90;;;;;;5034052;28;20061;-87
2022/09/10 09:18:29;;;;;;;16.73;11.02;;;19.10;99.90;;;;;;5034724;28;20045;-86
2022/09/10 09:21:06;;;;;;;16.85;11.00;;;19.00;99.90;;;;;;5016581;28;20057;-86
2022/09/10 09:23:50;;;;;;;15.18;11.13;;;19.00;99.90;;;;;;5016928;28;20088;-86
2022/09/10 09:26:18;;;;;;;15.18;10.02;;;18.90;99.90;;;;;;5016539;28;20053;-86
2022/09/10 09:28:53;;;;;;;12.60;10.02;;;18.90;99.90;;;;;;5016706;28;20049;-86
2022/09/10 09:31:27;;;;;;;12.30;8.93;;;18.90;99.90;;;;;;5017038;28;20128;-87
2022/09/10 09:34:00;;;;;;;11.25;9.70;;;19.10;99.90;;;;;;5034785;28;20394;-86
2022/09/10 09:36:31;;;;;;;10.68;8.57;;;19.20;99.90;;;;;;5016956;28;20053;-87
2022/09/10 09:38:57;;;;;;;9.05;7.28;;;19.40;99.90;;;;;;5017091;28;20052;-87
2022/09/10 09:41:52;;;;;;;13.23;8.90;;;20.20;99.90;;;;;;5016699;28;20394;-87
2022/09/10 09:44:30;;;;;;;12.73;8.88;;;21.30;99.90;;;;;;5000435;28;20049;-87
2022/09/10 09:46:59;;;;;;;10.90;8.60;;;21.50;99.90;;;;;;5034212;28;20112;-86
2022/09/10 09:49:25;;;;;;;13.27;9.30;;;21.10;99.90;;;;;;5016981;28;20407;-86
2022/09/10 09:51:52;;;;;;;17.08;8.90;;;20.60;99.90;;;;;;5034079;28;20038;-86
2022/09/10 09:54:22;;;;;;;14.90;9.93;;;20.00;99.90;;;;;;5016002;28;20132;-86
2022/09/10 09:56:50;;;;;;;;;;;19.70;99.90;;;;;;5016946;28;20049;-86
2022/09/10 09:59:35;;;;;;;10.05;7.13;;;19.40;99.90;;;;;;5033971;28;19921;-86
2022/09/10 10:02:12;;;;;;;11.88;7.03;;;19.50;99.90;;;;;;5034010;28;20064;-87
2022/09/10 10:04:52;;;;;;;9.48;7.07;;;20.40;99.90;;;;;;5033617;28;20092;-86
2022/09/10 10:07:30;;;;;;;9.33;6.53;;;20.70;99.90;;;;;;4999889;28;20495;-90
2022/09/10 10:09:56;;;;;;;12.48;7.40;;;20.80;99.90;;;;;;5017460;28;20300;-87
2022/09/10 10:12:22;;;;;;;10.38;7.57;;;20.50;99.90;;;;;;5016174;28;20068;-88
2022/09/10 10:14:48;;;;;;;9.43;7.15;;;20.40;99.90;;;;;;5016162;28;20042;-87
2022/09/10 10:17:29;;;;;;;10.43;6.57;;;20.30;99.90;;;;;;5033534;28;20083;-86
2022/09/10 10:20:15;;;;;;;9.57;6.00;;;20.40;99.90;;;;;;5016181;28;20057;-86
2022/09/10 10:22:43;;;;;;;7.47;4.85;;;20.40;99.90;;;;;;5033878;28;20045;-86
2022/09/10 10:25:44;;;;;;;9.70;5.60;;;20.40;99.90;;;;;;5015818;28;20495;-86
2022/09/10 10:28:25;;;;;;;21.25;6.45;;;20.50;99.90;;;;;;5015787;28;20103;-86
2022/09/10 10:30:57;;;;;;;17.40;7.25;;;20.60;99.90;;;;;;5016331;28;20041;-87
2022/09/10 10:33:27;;;;;;;12.73;5.60;;;20.70;99.90;;;;;;5032616;28;20124;-87
2022/09/10 10:36:02;;;;;;;9.17;6.23;;;20.90;99.90;;;;;;5033517;28;20108;-86
2022/09/10 10:38:39;;;;;;;10.32;6.10;;;21.10;99.90;;;;;;5000576;28;20637;-87
2022/09/10 10:41:23;;;;;;;8.82;6.13;;;21.40;99.90;;;;;;5033662;28;20068;-86
2022/09/10 10:44:11;;;;;;;8.05;4.50;;;21.70;99.90;;;;;;5016314;28;20503;-91
2022/09/10 10:46:47;;;;;;;8.10;4.80;;;21.80;99.90;;;;;;5033701;28;20085;-86
2022/09/10 10:49:34;;;;;;;9.48;4.00;;;21.60;99.90;;;;;;5015903;28;20128;-87
2022/09/10 10:52:26;;;;;;;5.57;3.85;;;21.40;99.90;;;;;;5025104;28;20394;-86
2022/09/10 10:55:10;;;;;;;4.82;3.28;;;21.10;99.90;;;;;;5054847;28;20063;-88
2022/09/10 10:58:23;;;;;;;7.07;4.55;;;21.00;99.90;;;;;;5023228;28;20099;-86
2022/09/10 11:01:05;;;;;;;5.80;3.63;;;21.00;99.90;;;;;;5012697;28;20064;-87
2022/09/10 11:03:41;;;;;;;9.05;4.45;;;21.10;99.90;;;;;;5056320;28;20494;-87
2022/09/10 11:06:13;;;;;;;7.03;3.92;;;21.30;99.90;;;;;;5038181;28;20125;-86
2022/09/10 11:08:44;;;;;;;8.25;4.18;;;21.40;99.90;;;;;;5047665;28;20387;-88
2022/09/10 11:11:15;;;;;;;7.60;3.13;;;21.50;99.90;;;;;;5032814;28;20041;-91
2022/09/10 11:13:49;;;;;;;5.95;3.20;;;21.70;99.90;;;;;;5050847;28;20041;-86
2022/09/10 11:16:32;;;;;;;5.85;2.50;;;21.80;99.90;;;;;;5064180;28;20082;-86
2022/09/10 11:19:12;;;;;;;4.82;2.20;;;21.90;99.90;;;;;;5079117;28;20127;-88
2022/09/10 11:21:52;;;;;;;;;;;22.20;99.90;;;;;;5043877;28;20041;-87
2022/09/10 11:24:28;;;;;;;3.92;1.77;;;22.50;99.90;;;;;;5038949;28;20397;-86
2022/09/10 11:27:06;;;;;;;2.95;1.90;;;22.60;99.90;;;;;;5039927;28;20056;-87
2022/09/10 11:30:03;;;;;;;3.85;2.10;;;23.00;99.90;;;;;;5057136;28;20175;-87
2022/09/10 11:32:54;;;;;;;3.28;2.03;;;23.70;99.90;;;;;;5056018;28;20045;-87
2022/09/10 11:35:34;;;;;;;3.83;2.03;;;24.20;99.90;;;;;;5059594;28;20055;-94
2022/09/10 11:38:10;;;;;;;5.32;2.00;;;24.70;99.90;;;;;;5058737;28;20056;-85
2022/09/10 11:40:45;;;;;;;4.43;3.20;;;24.90;99.90;;;;;;5058933;28;20080;-87
2022/09/10 11:43:18;;;;;;;3.75;2.72;;;25.40;99.90;;;;;;5059463;28;20436;-88
2022/09/10 11:45:53;;;;;;;5.80;3.15;;;26.20;99.90;;;;;;5076635;28;20044;-87
2022/09/10 11:48:41;;;;;;;6.78;3.63;;;26.90;99.90;;;;;;5042556;28;20084;-87
2022/09/10 11:51:16;;;;;;;6.13;3.25;;;26.70;99.90;;;;;;5041747;28;20054;-95
2022/09/10 11:53:43;;;;;;;5.53;3.65;;;26.70;99.90;;;;;;5038155;28;20050;-87
2022/09/10 11:56:14;;;;;;;4.38;2.63;;;26.70;99.90;;;;;;5053712;28;20053;-87
2022/09/10 11:58:51;;;;;;;4.95;3.28;;;27.00;99.90;;;;;;5037422;28;20045;-94
2022/09/10 12:01:42;;;;;;;4.90;3.80;;;27.40;99.90;;;;;;5043513;28;20049;-92
2022/09/10 12:04:35;;;;;;;4.30;3.42;;;27.60;99.90;;;;;;5027057;28;20045;-88
2022/09/10 12:07:04;;;;;;;6.93;4.20;;;27.10;99.90;;;;;;5025204;28;20110;-89
2022/09/10 12:09:51;;;;;;;6.18;4.10;;;26.00;99.90;;;;;;5064104;28;20140;-89
2022/09/10 12:12:24;;;;;;;5.78;3.53;;;25.10;99.90;;;;;;5065420;28;20052;-88
2022/09/10 12:14:50;;;;;;;7.25;4.00;;;24.50;99.90;;;;;;5042302;28;20391;-88
2022/09/10 12:17:23;;;;;;;7.28;4.10;;;24.10;99.90;;;;;;5026045;28;20055;-94
2022/09/10 12:19:53;;;;;;;6.90;4.43;;;23.70;99.90;;;;;;5060309;28;20045;-88
2022/09/10 12:22:29;;;;;;;5.38;3.95;;;23.30;99.90;;;;;;5059867;28;20572;-96
2022/09/10 12:25:01;;;;;;;7.15;3.78;;;22.90;99.90;;;;;;5041002;28;20473;-89
2022/09/10 12:27:51;;;;;;;6.45;4.07;;;22.60;99.90;;;;;;5041107;28;20055;-88
2022/09/10 12:30:27;;;;;;;5.53;3.83;;;22.30;99.90;;;;;;5028021;28;20057;-93
2022/09/10 12:33:12;;;;;;;6.85;4.03;;;22.00;99.90;;;;;;5039226;28;20085;-87
2022/09/10 12:35:43;;;;;;;6.32;4.40;;;21.80;99.90;;;;;;5038955;28;20463;-87
2022/09/10 12:38:46;;;;;;;7.70;4.45;;;21.60;99.90;;;;;;5055501;28;20047;-88
2022/09/10 12:41:25;;;;;;;6.30;4.40;;;21.40;99.90;;;;;;5041593;28;20511;-93
2022/09/10 12:43:59;;;;;;;7.22;4.53;;;21.20;99.90;;;;;;5051900;28;20059;-87
2022/09/10 12:46:26;;;;;;;7.20;4.55;;;21.00;99.90;;;;;;5034258;28;20049;-88
2022/09/10 12:48:54;;;;;;;5.63;3.95;;;20.80;99.90;;;;;;5020911;28;20060;-87
2022/09/10 12:51:35;;;;;;;5.55;3.80;;;20.70;99.90;;;;;;5004022;28;20060;-89
2022/09/10 12:54:28;;;;;;;10.23;4.32;;;20.60;99.90;;;;;;5018079;28;20060;-87